Time;durP1;ratioP1;P1;durP2;ratioP2;P2;SDS_P1;SDS_P2;PMS_P1;PMS_P2;Temp;Humidity;BMP_temperature;BMP_pressure;BME280_temperature;BME280_humidity;BME280_pressure;Samples;Min_cycle;Max_cycle;Signal;HPM_P1;HPM_P2
2023/03/07 00:02:32;;;;;;;1.22;1.17;;;;;;;19.65;30.54;98353.45;1809482;79;28302;-56
2023/03/07 00:05:21;;;;;;;1.35;1.35;;;;;;;19.69;30.51;98350.53;1790000;79;28310;-52
2023/03/07 00:08:11;;;;;;;1.40;1.30;;;;;;;19.71;30.50;98357.39;1789746;79;28371;-54
2023/03/07 00:11:04;;;;;;;1.60;1.20;;;;;;;19.66;30.53;98349.11;1791002;79;28331;-56
2023/03/07 00:13:52;;;;;;;1.55;1.30;;;;;;;19.68;30.52;98361.12;1777805;79;28275;-59
2023/03/07 00:16:41;;;;;;;1.12;1.12;;;;;;;19.68;30.49;98354.31;1780574;79;28455;-56
2023/03/07 00:19:30;;;;;;;1.10;1.10;;;;;;;19.67;30.53;98352.67;1799581;79;28292;-55
2023/03/07 00:22:18;;;;;;;1.30;1.30;;;;;;;19.64;30.51;98348.53;1799399;79;28399;-56
2023/03/07 00:25:08;;;;;;;1.22;1.12;;;;;;;19.68;30.51;98344.77;1795775;79;28440;-56
2023/03/07 00:27:57;;;;;;;1.17;1.17;;;;;;;19.68;30.51;98344.77;1789049;79;28311;-57
2023/03/07 00:30:45;;;;;;;1.30;1.30;;;;;;;19.68;30.53;98348.86;1789822;79;30300;-54
2023/03/07 00:33:34;;;;;;;1.50;1.40;;;;;;;19.68;30.48;98339.33;1791765;79;28280;-56
2023/03/07 00:36:23;;;;;;;1.20;1.20;;;;;;;19.68;30.51;98339.33;1776121;79;28251;-57
2023/03/07 00:39:13;;;;;;;1.20;1.10;;;;;;;19.68;30.51;98340.16;1782018;79;28372;-59
2023/03/07 00:42:01;;;;;;;1.30;1.30;;;;;;;19.69;30.50;98343.72;1800147;79;28271;-57
2023/03/07 00:44:50;;;;;;;1.45;1.17;;;;;;;19.67;30.49;98343.97;1797306;79;28279;-60
2023/03/07 00:47:38;;;;;;;1.25;1.20;;;;;;;19.66;30.52;98343.66;1789804;79;28261;-58
2023/03/07 00:50:27;;;;;;;1.40;1.30;;;;;;;19.65;30.54;98342.55;1857099;76;28320;-57
2023/03/07 00:53:17;;;;;;;1.30;1.30;;;;;;;19.64;30.55;98344.45;1847895;77;28177;-53
2023/03/07 00:56:11;;;;;;;1.30;1.30;;;;;;;19.65;30.56;98339.27;1853101;76;28195;-55
2023/03/07 00:58:59;;;;;;;1.22;1.22;;;;;;;19.66;30.53;98341.47;1848658;76;28277;-54
2023/03/07 01:01:48;;;;;;;1.20;1.20;;;;;;;19.65;30.56;98338.47;1842637;76;28227;-56
2023/03/07 01:04:36;;;;;;;1.10;1.10;;;;;;;19.61;30.57;98327.75;1846692;77;28111;-56
2023/03/07 01:07:25;;;;;;;1.42;1.32;;;;;;;19.66;30.55;98326.48;1842343;77;28266;-54
2023/03/07 01:10:13;;;;;;;1.30;1.22;;;;;;;19.68;30.52;98332.52;1877238;76;28149;-54
2023/03/07 01:13:02;;;;;;;1.50;1.40;;;;;;;19.66;30.50;98321.03;1856466;76;28173;-56
2023/03/07 01:15:50;;;;;;;1.60;1.40;;;;;;;19.65;30.56;98323.48;1859212;76;28249;-53
2023/03/07 01:18:40;;;;;;;1.45;1.35;;;;;;;19.65;30.54;98314.75;1825064;77;28167;-56
2023/03/07 01:21:32;;;;;;;1.45;1.35;;;;;;;19.66;30.55;98310.14;1804545;78;28437;-53
2023/03/07 01:24:21;;;;;;;2.02;1.60;;;;;;;19.65;30.44;98303.06;1804379;78;28377;-53
2023/03/07 01:27:10;;;;;;;1.85;1.52;;;;;;;19.64;30.36;98304.11;1824746;78;28907;-56
2023/03/07 01:29:59;;;;;;;1.22;1.22;;;;;;;19.64;30.46;98304.11;1802965;78;28317;-54
2023/03/07 01:32:48;;;;;;;1.10;1.10;;;;;;;19.63;30.48;98303.81;1810036;78;28340;-57
2023/03/07 01:35:39;;;;;;;1.40;1.30;;;;;;;19.63;30.53;98296.47;1808502;78;28352;-57
2023/03/07 01:38:32;;;;;;;1.50;1.40;;;;;;;19.66;30.51;98301.44;1818676;78;28269;-54
2023/03/07 01:41:17;;;;;;;1.40;1.30;;;;;;;19.66;30.49;98295.16;1813434;78;28323;-56
2023/03/07 01:44:24;;;;;;;1.20;1.20;;;;;;;19.66;30.49;98286.98;1810850;78;28261;-56
2023/03/07 01:47:13;;;;;;;1.32;1.22;;;;;;;19.64;30.53;98286.41;1805014;78;28387;-56
2023/03/07 01:50:06;;;;;;;1.00;1.00;;;;;;;19.61;30.57;98280.08;1821117;78;28402;-56
2023/03/07 01:52:58;;;;;;;1.20;1.20;;;;;;;19.61;30.56;98282.80;1801169;79;28414;-54
2023/03/07 01:55:48;;;;;;;1.25;1.25;;;;;;;19.61;30.53;98282.27;1808555;78;28261;-53
2023/03/07 01:58:40;;;;;;;1.23;1.20;;;;;;;19.61;30.57;98285.00;1862745;75;28109;-57
2023/03/07 02:01:29;;;;;;;1.30;1.30;;;;;;;19.62;30.54;98283.11;1863119;75;28262;-56
2023/03/07 02:04:23;;;;;;;1.57;1.47;;;;;;;19.62;30.52;98279.85;1866250;75;28261;-55
2023/03/07 02:07:13;;;;;;;1.27;1.20;;;;;;;19.65;30.53;98281.27;1780934;80;28351;-55
2023/03/07 02:10:03;;;;;;;1.10;1.10;;;;;;;19.62;30.53;98285.83;1805790;78;28281;-53
2023/03/07 02:12:53;;;;;;;1.35;1.25;;;;;;;19.61;30.52;98278.72;1838579;76;28265;-58
2023/03/07 02:15:42;;;;;;;1.32;1.30;;;;;;;19.62;30.53;98281.74;1849397;76;28294;-55
2023/03/07 02:18:36;;;;;;;1.35;1.25;;;;;;;19.62;30.53;98278.48;1839874;77;28204;-54
2023/03/07 02:21:40;;;;;;;1.17;1.10;;;;;;;19.65;30.50;98277.18;1859238;76;28173;-57
2023/03/07 02:24:37;;;;;;;1.50;1.40;;;;;;;19.62;30.52;98270.84;1812369;78;28278;-56
2023/03/07 02:27:27;;;;;;;1.22;1.12;;;;;;;19.60;30.58;98271.63;1799940;79;28305;-56
2023/03/07 02:30:16;;;;;;;1.30;1.30;;;;;;;19.60;30.55;98270.27;1780211;80;28887;-57
2023/03/07 02:33:05;;;;;;;1.30;1.30;;;;;;;19.59;30.58;98267.24;1790902;79;39122;-53
2023/03/07 02:36:00;;;;;;;1.40;1.40;;;;;;;19.61;30.55;98269.18;1836574;76;28223;-56
2023/03/07 02:38:53;;;;;;;1.40;1.30;;;;;;;19.60;30.55;98272.47;1848031;76;28188;-53
2023/03/07 02:41:43;;;;;;;1.20;1.20;;;;;;;19.59;30.55;98268.08;1837007;77;28176;-52
2023/03/07 02:44:33;;;;;;;1.37;1.27;;;;;;;19.60;30.53;98259.38;1852732;76;28308;-58
2023/03/07 02:47:22;;;;;;;1.32;1.22;;;;;;;19.58;30.58;98254.16;1859590;76;28300;-55
2023/03/07 02:50:12;;;;;;;1.37;1.27;;;;;;;19.58;30.57;98251.42;1837353;76;28688;-55
2023/03/07 02:53:03;;;;;;;1.27;1.17;;;;;;;19.60;30.57;98258.02;1839055;76;28263;-56
2023/03/07 02:55:51;;;;;;;1.35;1.35;;;;;;;19.62;30.56;98251.78;1838544;77;28153;-56
2023/03/07 02:58:39;;;;;;;1.57;1.47;;;;;;;19.62;30.55;98252.61;1831109;77;28331;-58
2023/03/07 03:01:28;;;;;;;1.37;1.30;;;;;;;19.61;30.52;98250.95;1858693;76;28214;-56
2023/03/07 03:04:17;;;;;;;1.70;1.60;;;;;;;19.61;30.52;98250.95;1842748;77;28129;-55
2023/03/07 03:07:05;;;;;;;1.30;1.20;;;;;;;19.59;30.53;98246.81;1836766;77;28142;-56
2023/03/07 03:09:54;;;;;;;1.12;1.12;;;;;;;19.61;30.54;98243.30;1851617;77;28309;-56
2023/03/07 03:12:43;;;;;;;1.37;1.27;;;;;;;19.61;30.52;98244.66;1867504;75;28152;-56
2023/03/07 03:15:32;;;;;;;1.17;1.17;;;;;;;19.60;30.51;98237.05;1868563;75;28113;-55
2023/03/07 03:18:21;;;;;;;1.40;1.30;;;;;;;19.60;30.55;98237.05;1863443;75;28186;-55
2023/03/07 03:21:11;;;;;;;1.17;1.17;;;;;;;19.62;30.52;98241.72;1862978;75;28202;-54
2023/03/07 03:24:00;;;;;;;1.25;1.20;;;;;;;19.61;30.50;98229.69;1863192;75;28202;-53
2023/03/07 03:26:48;;;;;;;2.70;1.45;;;;;;;19.61;30.50;98222.88;1868112;75;28169;-56
2023/03/07 03:29:38;;;;;;;1.35;1.25;;;;;;;19.60;30.53;98232.97;1863253;75;28107;-57
2023/03/07 03:32:27;;;;;;;2.17;1.27;;;;;;;19.59;30.51;98228.58;1863038;75;28169;-55
2023/03/07 03:35:16;;;;;;;1.20;1.20;;;;;;;19.59;30.51;98225.86;1863229;75;28245;-55
2023/03/07 03:38:04;;;;;;;1.50;1.40;;;;;;;19.58;30.53;98229.64;1867747;75;28171;-55
2023/03/07 03:40:53;;;;;;;1.55;1.37;;;;;;;19.56;30.55;98226.34;1874524;75;28242;-55
2023/03/07 03:43:42;;;;;;;1.50;1.40;;;;;;;19.58;30.54;98219.30;1873725;75;28095;-58
2023/03/07 03:46:31;;;;;;;1.60;1.50;;;;;;;19.58;30.53;98220.11;1872289;75;28111;-54
2023/03/07 03:49:20;;;;;;;1.40;1.30;;;;;;;19.58;30.53;98220.66;1867187;75;28220;-56
2023/03/07 03:52:11;;;;;;;1.40;1.30;;;;;;;19.59;30.52;98224.50;1862631;75;28204;-55
2023/03/07 03:54:59;;;;;;;1.52;1.42;;;;;;;19.57;30.51;98220.36;1872712;75;28127;-55
2023/03/07 03:57:47;;;;;;;1.15;1.15;;;;;;;19.59;30.51;98213.59;1884460;75;28158;-55
2023/03/07 04:00:35;;;;;;;1.37;1.27;;;;;;;19.60;30.53;98215.80;1871015;75;28188;-55
2023/03/07 04:03:24;;;;;;;1.30;1.20;;;;;;;19.58;30.49;98213.86;1855557;75;28097;-56
2023/03/07 04:06:17;;;;;;;1.00;1.00;;;;;;;19.58;30.50;98209.77;1862932;75;28310;-57
2023/03/07 04:09:05;;;;;;;1.60;1.50;;;;;;;19.57;30.53;98208.10;1852390;77;28255;-53
2023/03/07 04:11:55;;;;;;;1.57;1.47;;;;;;;19.57;30.50;98207.58;1863516;75;28149;-55
2023/03/07 04:14:45;;;;;;;1.52;1.45;;;;;;;19.59;30.48;98201.87;1863232;75;28121;-53
2023/03/07 04:17:34;;;;;;;1.20;1.20;;;;;;;19.58;30.49;98199.67;1863167;75;36263;-57
2023/03/07 04:20:23;;;;;;;1.47;1.37;;;;;;;19.57;30.50;98199.94;1868083;75;28309;-53
2023/03/07 04:23:12;;;;;;;2.77;1.20;;;;;;;19.58;30.52;98192.06;1862220;75;28184;-57
2023/03/07 04:26:03;;;;;;;1.20;1.20;;;;;;;19.58;30.48;98201.04;1863013;75;28182;-55
2023/03/07 04:28:53;;;;;;;1.40;1.30;;;;;;;19.59;30.51;98192.34;1884403;75;28175;-55
2023/03/07 04:31:43;;;;;;;1.47;1.40;;;;;;;19.57;30.49;98195.84;1868344;75;28300;-56
2023/03/07 04:34:31;;;;;;;1.37;1.27;;;;;;;19.56;30.51;98192.82;1832289;77;28190;-53
2023/03/07 04:37:20;;;;;;;1.47;1.37;;;;;;;19.57;30.49;98192.59;1799027;78;28390;-57
2023/03/07 04:40:10;;;;;;;1.30;1.30;;;;;;;19.56;30.53;98190.09;1805674;78;28464;-55
2023/03/07 04:42:58;;;;;;;1.50;1.40;;;;;;;19.57;30.49;98188.51;1803823;78;28298;-57
2023/03/07 04:45:47;;;;;;;1.20;1.20;;;;;;;19.56;30.50;98191.45;1810658;78;28301;-55
2023/03/07 04:48:35;;;;;;;1.45;1.35;;;;;;;19.55;30.57;98202.08;1810916;78;28377;-57
2023/03/07 04:51:24;;;;;;;1.52;1.40;;;;;;;19.55;30.52;98199.36;1831173;78;28395;-58
2023/03/07 04:54:12;;;;;;;1.55;1.45;;;;;;;19.57;30.48;98201.30;1808686;78;28261;-56
2023/03/07 04:57:01;;;;;;;1.10;1.10;;;;;;;19.57;30.49;98195.84;1862925;75;28155;-57
2023/03/07 04:59:50;;;;;;;1.42;1.32;;;;;;;19.58;30.48;98199.67;1863392;75;28252;-54
2023/03/07 05:02:39;;;;;;;1.50;1.40;;;;;;;19.57;30.44;98188.51;1867247;75;28156;-54
2023/03/07 05:05:28;;;;;;;1.62;1.52;;;;;;;19.56;30.47;98186.01;1792029;78;28238;-54
2023/03/07 05:08:17;;;;;;;1.60;1.50;;;;;;;19.54;30.51;98193.08;1804372;78;28266;-52
2023/03/07 05:11:06;;;;;;;1.50;1.40;;;;;;;19.56;30.50;98193.66;1821991;77;28347;-54
2023/03/07 05:13:54;;;;;;;1.27;1.27;;;;;;;19.58;30.48;98185.25;1792518;78;28203;-59
2023/03/07 05:16:43;;;;;;;1.12;1.12;;;;;;;19.56;30.48;98180.56;1796779;79;28374;-53
2023/03/07 05:19:32;;;;;;;1.95;1.30;;;;;;;19.55;30.48;98182.48;1799843;79;28469;-56
2023/03/07 05:22:21;;;;;;;2.90;1.60;;;;;;;19.56;30.48;98184.65;1798550;79;28415;-55
2023/03/07 05:25:10;;;;;;;1.50;1.40;;;;;;;19.58;30.49;98182.53;1791466;79;28377;-56
2023/03/07 05:27:58;;;;;;;1.20;1.20;;;;;;;19.54;30.49;98174.54;1836710;76;28112;-56
2023/03/07 05:30:48;;;;;;;1.20;1.20;;;;;;;19.54;30.49;98166.38;1836303;77;28364;-55
2023/03/07 05:33:37;;;;;;;1.70;1.60;;;;;;;19.53;30.51;98174.27;1838415;77;28177;-57
2023/03/07 05:36:25;;;;;;;1.62;1.52;;;;;;;19.51;30.42;98169.05;1839069;77;28150;-56
2023/03/07 05:39:15;;;;;;;1.57;1.47;;;;;;;19.52;30.48;98167.98;1836300;77;28132;-55
2023/03/07 05:42:04;;;;;;;1.30;1.20;;;;;;;19.55;30.48;98166.67;1847895;76;28305;-54
2023/03/07 05:44:53;;;;;;;1.42;1.37;;;;;;;19.54;30.47;98165.01;1851231;76;28177;-54
2023/03/07 05:47:42;;;;;;;1.32;1.22;;;;;;;19.54;30.48;98163.12;1826112;78;28213;-57
2023/03/07 05:50:32;;;;;;;1.32;1.22;;;;;;;19.56;30.45;98153.33;1846522;77;28581;-56
2023/03/07 05:53:21;;;;;;;1.22;1.20;;;;;;;19.54;30.48;98144.58;1858891;76;28143;-56
2023/03/07 05:56:10;;;;;;;1.47;1.37;;;;;;;19.54;30.46;98139.97;1850853;77;38429;-56
2023/03/07 05:58:58;;;;;;;1.20;1.20;;;;;;;19.55;30.46;98140.80;1837417;77;28098;-57
2023/03/07 06:01:48;;;;;;;1.40;1.30;;;;;;;19.56;30.46;98145.98;1836258;77;28145;-54
2023/03/07 06:04:37;;;;;;;1.33;1.33;;;;;;;19.53;30.48;98146.50;1836531;77;28266;-55
2023/03/07 06:07:26;;;;;;;1.60;1.50;;;;;;;19.53;30.48;98139.70;1841337;77;31304;-56
2023/03/07 06:10:15;;;;;;;1.50;1.40;;;;;;;19.55;30.45;98147.61;1847968;76;28617;-54
2023/03/07 06:13:04;;;;;;;1.50;1.40;;;;;;;19.53;30.46;98142.95;1848005;76;28203;-56
2023/03/07 06:15:53;;;;;;;1.50;1.40;;;;;;;19.52;30.52;98137.20;1852903;76;28262;-54
2023/03/07 06:18:42;;;;;;;1.70;1.50;;;;;;;19.53;30.48;98134.25;1861959;76;28143;-56
2023/03/07 06:21:31;;;;;;;1.22;1.20;;;;;;;19.47;30.48;98112.60;1877814;76;28209;-57
2023/03/07 06:24:19;;;;;;;1.30;1.20;;;;;;;19.55;30.46;98124.45;1853017;76;28172;-55
2023/03/07 06:27:08;;;;;;;1.40;1.30;;;;;;;19.51;30.49;98130.92;1846592;76;28183;-56
2023/03/07 06:29:57;;;;;;;1.70;1.60;;;;;;;19.53;30.47;98134.25;1860164;76;28086;-56
2023/03/07 06:32:45;;;;;;;1.45;1.35;;;;;;;19.54;30.48;98126.87;1856736;76;28184;-55
2023/03/07 06:35:34;;;;;;;1.37;1.37;;;;;;;19.53;30.47;98134.78;1856600;76;28312;-57
2023/03/07 06:38:23;;;;;;;1.33;1.30;;;;;;;19.54;30.45;98135.05;1860218;76;28182;-56
2023/03/07 06:41:13;;;;;;;1.42;1.32;;;;;;;19.54;30.46;98131.80;1858913;76;28238;-57
2023/03/07 06:44:01;;;;;;;1.50;1.20;;;;;;;19.53;30.46;98126.61;1856630;76;28219;-55
2023/03/07 06:46:51;;;;;;;1.30;1.27;;;;;;;19.54;30.43;98133.69;1856589;76;33128;-55
2023/03/07 06:49:40;;;;;;;1.45;1.35;;;;;;;19.53;30.47;98130.70;1877811;76;28203;-54
2023/03/07 06:52:29;;;;;;;1.30;1.30;;;;;;;19.54;30.45;98133.16;1857516;76;28203;-53
2023/03/07 06:55:20;;;;;;;1.47;1.40;;;;;;;19.53;30.47;98123.36;1872092;76;28688;-54
2023/03/07 06:58:09;;;;;;;1.50;1.40;;;;;;;19.53;30.46;98122.00;1867872;76;28168;-54
2023/03/07 07:00:57;;;;;;;1.60;1.50;;;;;;;19.52;30.46;98120.86;1846416;77;28190;-52
2023/03/07 07:03:46;;;;;;;1.20;1.20;;;;;;;19.53;30.46;98119.27;1877553;76;28194;-56
2023/03/07 07:06:34;;;;;;;1.50;1.40;;;;;;;19.55;30.43;98123.93;1856550;76;28179;-57
2023/03/07 07:09:23;;;;;;;1.30;1.30;;;;;;;19.55;30.45;98131.27;1858504;76;28229;-55
2023/03/07 07:12:12;;;;;;;1.20;1.20;;;;;;;19.53;30.42;98133.42;1860045;76;28611;-57
2023/03/07 07:15:04;;;;;;;1.57;1.47;;;;;;;19.54;30.43;98133.16;1856684;76;28123;-54
2023/03/07 07:17:53;;;;;;;1.20;1.20;;;;;;;19.56;30.42;98128.81;1848354;75;28318;-57
2023/03/07 07:20:42;;;;;;;1.45;1.25;;;;;;;19.55;30.44;98125.82;1850558;76;28314;-53
2023/03/07 07:23:32;;;;;;;1.47;1.45;;;;;;;19.56;30.38;98134.27;1850001;76;28636;-56
2023/03/07 07:26:21;;;;;;;1.50;1.40;;;;;;;19.56;30.40;98137.81;1847643;76;28125;-55
2023/03/07 07:29:09;;;;;;;1.70;1.60;;;;;;;19.54;30.46;98135.05;1867007;76;28227;-56
2023/03/07 07:31:58;;;;;;;1.50;1.40;;;;;;;19.54;30.46;98141.86;1854607;76;28282;-56
2023/03/07 07:34:47;;;;;;;1.65;1.55;;;;;;;19.55;30.42;98140.80;1848691;76;28141;-56
2023/03/07 07:37:35;;;;;;;1.27;1.23;;;;;;;19.53;30.45;98142.42;1863008;76;28289;-56
2023/03/07 07:40:24;;;;;;;1.50;1.40;;;;;;;19.56;30.43;98142.43;1837856;76;28239;-57
2023/03/07 07:43:15;;;;;;;1.42;1.42;;;;;;;19.57;30.42;98142.20;1853393;76;28236;-54
2023/03/07 07:46:07;;;;;;;1.85;1.50;;;;;;;19.57;30.43;98145.46;1848450;76;28098;-57
2023/03/07 07:48:56;;;;;;;1.53;1.43;;;;;;;19.57;30.43;98143.56;1847506;76;28183;-53
2023/03/07 07:51:46;;;;;;;1.60;1.50;;;;;;;19.58;30.44;98143.04;1849661;76;28194;-57
2023/03/07 07:54:34;;;;;;;1.30;1.30;;;;;;;19.56;30.42;98139.71;1868654;76;28094;-54
2023/03/07 07:57:23;;;;;;;1.77;1.67;;;;;;;19.55;30.43;98140.27;1848702;76;28219;-53
2023/03/07 08:00:18;;;;;;;1.50;1.40;;;;;;;19.57;30.44;98140.02;1862856;76;28225;-54
2023/03/07 08:03:03;;;;;;;1.70;1.40;;;;;;;19.56;30.44;98131.01;1858215;76;28150;-57
2023/03/07 08:05:52;;;;;;;1.75;1.40;;;;;;;19.57;30.43;98135.92;1837544;77;28252;-56
2023/03/07 08:08:40;;;;;;;1.50;1.40;;;;;;;19.56;30.45;98138.34;1848027;76;28158;-57
2023/03/07 08:11:29;;;;;;;1.30;1.30;;;;;;;19.58;30.43;98136.23;1847607;76;28217;-57
2023/03/07 08:14:17;;;;;;;1.50;1.40;;;;;;;19.58;30.42;98141.67;1848489;76;28262;-55
2023/03/07 08:17:06;;;;;;;1.47;1.37;;;;;;;19.58;30.42;98141.67;1854906;75;28169;-56
2023/03/07 08:19:54;;;;;;;1.22;1.22;;;;;;;19.55;30.45;98136.72;1863061;75;28121;-57
2023/03/07 08:22:42;;;;;;;1.50;1.40;;;;;;;19.57;30.43;98128.59;1862948;75;28159;-56
2023/03/07 08:25:31;;;;;;;1.30;1.30;;;;;;;19.56;30.44;98119.28;1865242;75;28249;-56
2023/03/07 08:28:20;;;;;;;1.50;1.40;;;;;;;19.56;30.45;98107.03;1852348;77;28266;-59
2023/03/07 08:31:11;;;;;;;1.45;1.35;;;;;;;19.56;30.44;98104.30;1874011;75;28208;-57
2023/03/07 08:33:59;;;;;;;1.40;1.30;;;;;;;19.58;30.44;98104.34;1876357;75;28192;-55
2023/03/07 08:36:48;;;;;;;1.37;1.33;;;;;;;19.57;30.45;98097.27;1865820;75;28204;-57
2023/03/07 08:39:36;;;;;;;1.20;1.20;;;;;;;19.59;30.43;98090.20;1865279;75;28166;-57
2023/03/07 08:42:24;;;;;;;1.40;1.30;;;;;;;19.59;30.44;98083.39;1862906;75;28141;-54
2023/03/07 08:45:14;;;;;;;1.32;1.32;;;;;;;19.57;30.42;98077.37;1862565;75;28300;-56
2023/03/07 08:48:02;;;;;;;1.70;1.60;;;;;;;19.58;30.44;98074.39;1866813;75;28207;-58
2023/03/07 08:50:52;;;;;;;1.20;1.20;;;;;;;19.59;30.41;98071.13;1864457;75;28623;-58
2023/03/07 08:53:47;;;;;;;1.57;1.47;;;;;;;19.59;30.42;98051.53;1880511;75;28126;-56
2023/03/07 08:56:31;;;;;;;1.57;1.47;;;;;;;19.59;30.41;98040.64;1878907;75;28101;-57
2023/03/07 08:59:20;;;;;;;1.42;1.32;;;;;;;19.60;30.42;98046.92;1868559;75;28183;-57
2023/03/07 09:02:11;;;;;;;1.55;1.45;;;;;;;19.60;30.43;98052.36;1873897;75;28396;-56
2023/03/07 09:04:59;;;;;;;1.35;1.30;;;;;;;19.57;30.42;98041.43;1832204;77;28208;-55
2023/03/07 09:07:47;;;;;;;1.60;1.50;;;;;;;19.59;30.43;98039.28;1794455;79;28375;-59
2023/03/07 09:10:37;;;;;;;1.60;1.50;;;;;;;19.60;30.45;98023.77;1825784;77;28135;-57
2023/03/07 09:13:25;;;;;;;1.30;1.30;;;;;;;19.59;30.42;98018.02;1822174;77;28218;-54
2023/03/07 09:16:14;;;;;;;1.50;1.40;;;;;;;19.60;30.44;98012.88;1822096;77;28210;-53
2023/03/07 09:19:02;;;;;;;1.67;1.53;;;;;;;19.60;30.44;98004.70;1831737;77;28284;-54
2023/03/07 09:21:51;;;;;;;1.40;1.30;;;;;;;19.60;30.44;98003.34;1790123;79;28315;-57
2023/03/07 09:24:39;;;;;;;1.40;1.40;;;;;;;19.62;30.43;97999.30;1837151;76;28192;-56
2023/03/07 09:27:28;;;;;;;1.42;1.32;;;;;;;19.61;30.43;97986.73;1835896;77;28292;-55
2023/03/07 09:30:17;;;;;;;1.20;1.20;;;;;;;19.60;30.44;97981.55;1840861;77;28228;-52
2023/03/07 09:33:05;;;;;;;1.50;1.40;;;;;;;19.60;30.44;97979.66;1848278;76;28214;-57
2023/03/07 09:35:54;;;;;;;1.40;1.30;;;;;;;19.60;30.39;97979.66;1847646;76;28122;-53
2023/03/07 09:38:43;;;;;;;1.87;1.50;;;;;;;19.64;30.42;97969.06;1848336;76;28343;-57
2023/03/07 09:41:51;;;;;;;1.60;1.50;;;;;;;19.64;30.39;97971.27;1852469;76;28099;-58
2023/03/07 09:45:02;;;;;;;1.55;1.45;;;;;;;19.61;30.40;97972.28;1839668;77;28147;-52
2023/03/07 09:48:07;;;;;;;1.25;1.20;;;;;;;19.63;30.42;97974.22;1843801;77;28240;-55
2023/03/07 09:50:58;;;;;;;1.50;1.40;;;;;;;19.62;30.42;97975.31;1837533;77;28321;-56
2023/03/07 09:53:54;;;;;;;1.52;1.40;;;;;;;19.59;30.44;97971.19;1865002;76;28145;-55
2023/03/07 09:56:57;;;;;;;1.45;1.37;;;;;;;19.60;30.46;97963.31;1847330;76;28713;-56
2023/03/07 09:59:48;;;;;;;1.40;1.40;;;;;;;19.61;30.45;97961.39;1867689;76;28225;-58
2023/03/07 10:02:45;;;;;;;1.50;1.40;;;;;;;19.55;30.47;97940.63;1853716;76;28134;-54
2023/03/07 10:05:39;;;;;;;1.45;1.37;;;;;;;19.62;30.43;97947.54;1743497;79;28313;-57
2023/03/07 10:08:34;;;;;;;1.40;1.30;;;;;;;19.63;30.45;97952.42;1835865;77;28160;-52
2023/03/07 10:11:31;;;;;;;1.40;1.30;;;;;;;19.62;30.41;97952.16;1832530;77;28283;-56
2023/03/07 10:14:22;;;;;;;1.20;1.20;;;;;;;19.63;30.45;97960.59;1858564;76;28094;-56
2023/03/07 10:17:42;;;;;;;1.30;1.20;;;;;;;19.63;30.43;97966.05;1841522;77;28242;-55
2023/03/07 10:20:45;;;;;;;1.57;1.45;;;;;;;19.63;30.43;97970.12;1840282;76;32647;-55
2023/03/07 10:23:48;;;;;;;1.65;1.55;;;;;;;19.61;30.44;97952.69;1805722;78;28159;-57
2023/03/07 10:26:43;;;;;;;1.40;1.30;;;;;;;19.61;30.46;97945.05;1783150;79;28473;-56
2023/03/07 10:29:40;;;;;;;1.42;1.40;;;;;;;19.62;30.44;97942.63;1799724;79;28463;-55
2023/03/07 10:32:37;;;;;;;1.47;1.37;;;;;;;19.62;30.44;97931.73;1796735;79;28305;-54
2023/03/07 10:35:42;;;;;;;1.20;1.20;;;;;;;19.62;30.44;97913.49;1796624;79;28314;-55
2023/03/07 10:38:56;;;;;;;1.40;1.30;;;;;;;19.63;30.44;97917.02;1841331;76;28242;-56
2023/03/07 10:41:45;;;;;;;1.60;1.50;;;;;;;19.61;30.43;97918.64;1844739;77;28094;-53
2023/03/07 10:44:34;;;;;;;1.35;1.25;;;;;;;19.60;30.44;97908.84;1856929;77;28560;-54
2023/03/07 10:47:25;;;;;;;1.40;1.30;;;;;;;19.65;30.38;97911.60;1836282;77;28095;-55
2023/03/07 10:50:25;;;;;;;1.47;1.37;;;;;;;19.65;30.33;97902.06;1835972;77;28235;-58
2023/03/07 10:53:28;;;;;;;2.25;1.40;;;;;;;19.67;30.34;97905.92;1868499;76;28167;-54
2023/03/07 10:56:18;;;;;;;1.32;1.32;;;;;;;19.67;30.35;97886.86;1843255;77;28165;-52
2023/03/07 10:59:10;;;;;;;1.30;1.20;;;;;;;19.66;30.33;97879.75;1841593;77;28279;-55
2023/03/07 11:02:00;;;;;;;1.42;1.32;;;;;;;19.66;30.36;97878.38;1832345;77;28157;-55
2023/03/07 11:04:48;;;;;;;1.35;1.30;;;;;;;19.67;30.36;97876.79;1847557;76;28240;-57
2023/03/07 11:07:37;;;;;;;1.52;1.42;;;;;;;19.62;30.32;97863.64;1857764;76;28294;-57
2023/03/07 11:10:37;;;;;;;1.90;1.50;;;;;;;19.69;30.28;97871.08;1847957;76;28177;-56
2023/03/07 11:13:25;;;;;;;1.60;1.50;;;;;;;19.73;30.25;97851.77;1848021;76;28178;-56
2023/03/07 11:16:20;;;;;;;1.50;1.20;;;;;;;19.68;30.27;97851.17;1847972;76;28240;-52
2023/03/07 11:19:39;;;;;;;1.43;1.23;;;;;;;19.69;30.27;97852.84;1857586;76;28210;-54
2023/03/07 11:22:35;;;;;;;1.40;1.30;;;;;;;19.69;30.27;97850.11;1837981;76;28263;-55
2023/03/07 11:25:25;;;;;;;1.47;1.37;;;;;;;19.68;30.30;97843.53;1868932;76;28098;-53
2023/03/07 11:28:34;;;;;;;1.30;1.30;;;;;;;19.68;30.34;97839.45;1849888;76;28126;-55
2023/03/07 11:31:41;;;;;;;1.37;1.27;;;;;;;19.70;30.26;97830.48;1837464;77;28091;-55
2023/03/07 11:34:35;;;;;;;1.10;1.10;;;;;;;19.65;30.30;97835.34;1858666;76;28325;-56
2023/03/07 11:37:42;;;;;;;1.40;1.30;;;;;;;19.68;30.32;97834.00;1844283;76;28305;-55
2023/03/07 11:40:33;;;;;;;2.00;1.50;;;;;;;19.68;30.30;97823.11;1818609;78;28251;-60
2023/03/07 11:43:24;;;;;;;1.40;1.35;;;;;;;19.67;30.27;97840.02;1843452;77;28541;-56
2023/03/07 11:46:20;;;;;;;1.30;1.30;;;;;;;19.69;30.31;97841.11;1839176;77;28231;-55
2023/03/07 11:49:11;;;;;;;1.32;1.22;;;;;;;19.69;30.29;97854.73;1857835;76;28785;-59
2023/03/07 11:52:20;;;;;;;1.50;1.40;;;;;;;19.69;30.26;97841.11;1863169;76;28133;-56
2023/03/07 11:55:37;;;;;;;2.00;1.50;;;;;;;19.71;30.23;97834.86;1847001;76;28319;-56
2023/03/07 11:58:41;;;;;;;2.10;1.50;;;;;;;19.71;30.21;97836.23;1763765;80;28640;-57
2023/03/07 12:01:38;;;;;;;1.50;1.40;;;;;;;19.66;30.25;97829.36;1851683;77;28269;-56
2023/03/07 12:04:53;;;;;;;1.25;1.20;;;;;;;19.69;30.25;97828.32;1810039;78;31096;-59
2023/03/07 12:07:47;;;;;;;1.50;1.40;;;;;;;19.67;30.23;97835.10;1797616;79;28279;-57
2023/03/07 12:10:47;;;;;;;1.40;1.30;;;;;;;19.67;30.20;97829.12;1793567;79;28267;-58
2023/03/07 12:13:42;;;;;;;1.40;1.30;;;;;;;19.68;30.21;97828.02;1788843;79;28785;-56
2023/03/07 12:16:45;;;;;;;1.50;1.40;;;;;;;19.69;30.23;97828.32;1837250;76;28245;-57
2023/03/07 12:19:51;;;;;;;1.20;1.20;;;;;;;19.70;30.21;97811.41;1836536;77;28658;-56
2023/03/07 12:23:05;;;;;;;1.50;1.40;;;;;;;19.71;30.22;97813.08;1883059;75;28117;-57
2023/03/07 12:25:56;;;;;;;1.30;1.20;;;;;;;19.69;30.22;97826.95;1862904;75;28278;-58
2023/03/07 12:28:47;;;;;;;1.30;1.30;;;;;;;19.71;30.24;97813.08;1865812;75;28234;-56
2023/03/07 12:31:42;;;;;;;1.50;1.40;;;;;;;19.72;30.22;97807.36;1855702;75;28188;-56
2023/03/07 12:34:45;;;;;;;1.60;1.50;;;;;;;19.75;30.18;97806.02;1862927;75;28268;-57
2023/03/07 12:37:39;;;;;;;1.87;1.70;;;;;;;19.74;30.18;97816.09;1878021;75;28189;-58
2023/03/07 12:40:39;;;;;;;1.52;1.45;;;;;;;19.73;30.18;97805.46;1832352;77;28178;-57
2023/03/07 12:43:31;;;;;;;1.37;1.27;;;;;;;19.76;30.15;97807.15;1794510;79;28488;-56
2023/03/07 12:46:35;;;;;;;1.00;1.00;;;;;;;19.76;30.16;97781.80;1809117;78;28388;-60
2023/03/07 12:49:35;;;;;;;2.00;1.20;;;;;;;19.77;30.12;97785.62;1812268;78;28406;-57
2023/03/07 12:52:33;;;;;;;1.23;1.23;;;;;;;19.73;30.15;97779.58;1817098;78;28347;-58
2023/03/07 12:55:36;;;;;;;1.20;1.20;;;;;;;19.76;30.15;97777.19;1822538;78;28247;-60
2023/03/07 12:58:46;;;;;;;1.20;1.10;;;;;;;19.72;30.18;97780.68;1822021;77;28303;-58
2023/03/07 13:01:40;;;;;;;1.50;1.40;;;;;;;19.75;30.18;97791.04;1796978;78;28399;-58
2023/03/07 13:04:37;;;;;;;1.00;1.00;;;;;;;19.74;30.16;97782.03;1806259;78;28434;-60
2023/03/07 13:07:28;;;;;;;1.05;1.05;;;;;;;19.76;30.16;97769.01;1808976;78;28262;-55
2023/03/07 13:10:20;;;;;;;1.50;1.30;;;;;;;19.78;30.12;97755.12;1801422;78;28378;-57
2023/03/07 13:13:28;;;;;;;1.20;1.10;;;;;;;19.78;30.14;97761.93;1822535;77;28203;-55
2023/03/07 13:16:34;;;;;;;1.20;1.20;;;;;;;19.80;30.10;97770.13;1803284;78;28478;-56
2023/03/07 13:19:38;;;;;;;1.15;1.12;;;;;;;19.79;30.11;97767.11;1811463;78;28251;-51
2023/03/07 13:22:29;;;;;;;1.30;1.30;;;;;;;19.76;30.15;97765.45;1807774;78;28303;-57
2023/03/07 13:25:23;;;;;;;1.27;1.20;;;;;;;19.74;30.17;97771.70;1819122;77;28290;-54
2023/03/07 13:28:38;;;;;;;1.20;1.20;;;;;;;19.73;30.21;97768.16;1848080;76;28212;-60
2023/03/07 13:31:29;;;;;;;1.30;1.30;;;;;;;19.74;30.20;97778.52;1847959;76;28090;-54